createdAt,value
2023-05-06T00:00:10.711Z,98683.03
2023-05-06T00:01:15.015Z,98683.03
2023-05-06T00:02:17.532Z,98685.72
2023-05-06T00:03:19.587Z,98678.41
2023-05-06T00:04:22.289Z,98678.13
2023-05-06T00:05:24.195Z,98677.31
2023-05-06T00:06:27.564Z,98676.53
2023-05-06T00:07:29.393Z,98674.63
2023-05-06T00:08:31.267Z,98678.94
2023-05-06T00:09:33.514Z,98675.72
2023-05-06T00:10:35.543Z,98672.44
2023-05-06T00:11:37.444Z,98664.59
2023-05-06T00:12:40.082Z,98670.00
2023-05-06T00:13:42.125Z,98670.84
2023-05-06T00:14:44.059Z,98674.34
2023-05-06T00:15:45.949Z,98671.63
2023-05-06T00:16:47.991Z,98668.94
2023-05-06T00:17:50.102Z,98666.22
2023-05-06T00:18:52.029Z,98673.53
2023-05-06T00:19:56.158Z,98663.78
2023-05-06T00:20:58.037Z,98667.03
2023-05-06T00:22:00.803Z,98671.63
2023-05-06T00:23:02.709Z,98667.03
2023-05-06T00:24:05.620Z,98667.03
2023-05-06T00:25:08.341Z,98666.22
2023-05-06T00:26:11.101Z,98675.94
2023-05-06T00:27:13.239Z,98669.75
2023-05-06T00:28:15.204Z,98665.44
2023-05-06T00:29:17.618Z,98667.59
2023-05-06T00:30:19.843Z,98667.31
2023-05-06T00:31:22.412Z,98674.34
2023-05-06T00:32:24.511Z,98670.00
2023-05-06T00:33:27.230Z,98670.00
2023-05-06T00:34:29.274Z,98665.44
2023-05-06T00:35:31.210Z,98668.13
2023-05-06T00:36:33.187Z,98673.00
2023-05-06T00:37:35.302Z,98663.78
2023-05-06T00:38:37.211Z,98676.03
2023-05-06T00:39:39.095Z,98673.00
2023-05-06T00:40:41.377Z,98674.91
2023-05-06T00:41:43.235Z,98680.31
2023-05-06T00:42:45.069Z,98676.03
2023-05-06T00:43:46.932Z,98672.50
2023-05-06T00:44:49.587Z,98678.72
2023-05-06T00:45:51.990Z,98674.41
2023-05-06T00:46:54.100Z,98676.31
2023-05-06T00:47:57.646Z,98678.72
2023-05-06T00:48:59.902Z,98680.31
2023-05-06T00:50:02.130Z,98677.13
2023-05-06T00:51:05.026Z,98669.31
2023-05-06T00:52:07.951Z,98673.13
2023-05-06T00:53:10.810Z,98678.22
2023-05-06T00:54:13.429Z,98673.13
2023-05-06T00:55:16.168Z,98682.03
2023-05-06T00:56:20.517Z,98672.81
2023-05-06T00:57:23.589Z,98675.00
2023-05-06T00:58:25.631Z,98670.41
2023-05-06T00:59:28.408Z,98667.19
2023-05-06T01:00:30.862Z,98672.63
2023-05-06T01:01:33.295Z,98670.72
2023-05-06T01:02:46.413Z,98663.41
2023-05-06T01:03:49.793Z,98665.28
2023-05-06T01:04:52.192Z,98665.28
2023-05-06T01:06:04.542Z,98659.59
2023-05-06T01:07:29.105Z,98664.69
2023-05-06T01:08:42.271Z,98657.97
2023-05-06T01:09:59.276Z,98665.00
2023-05-06T01:11:24.645Z,98662.59
2023-05-06T01:13:01.852Z,98661.50
2023-05-06T01:14:17.510Z,98662.38
2023-05-06T01:15:41.461Z,98658.28
2023-05-06T01:16:44.949Z,98666.16
2023-05-06T01:17:52.203Z,98660.75
2023-05-06T01:18:55.541Z,98657.56
2023-05-06T01:20:01.902Z,98654.03
2023-05-06T01:21:05.983Z,98663.75
2023-05-06T01:22:10.576Z,98653.84
2023-05-06T01:23:13.548Z,98653.53
2023-05-06T01:24:15.433Z,98666.25
2023-05-06T01:25:22.491Z,98661.66
2023-05-06T01:26:25.356Z,98660.84
2023-05-06T01:27:29.283Z,98657.66
2023-05-06T01:28:31.174Z,98662.47
2023-05-06T01:29:37.257Z,98659.25
2023-05-06T01:31:11.982Z,98658.34
2023-05-06T01:32:20.174Z,98657.34
2023-05-06T01:33:48.564Z,98660.56
2023-05-06T01:35:18.979Z,98654.16
2023-05-06T01:36:47.406Z,98657.84
2023-05-06T01:38:30.092Z,98660.56
2023-05-06T01:39:34.117Z,98651.97
2023-05-06T01:40:36.984Z,98653.38
2023-05-06T01:41:42.011Z,98653.38
2023-05-06T01:42:51.569Z,98650.69
2023-05-06T01:43:55.278Z,98651.28
2023-05-06T01:45:02.055Z,98653.69
2023-05-06T01:46:05.194Z,98654.78
2023-05-06T01:47:10.699Z,98656.38
2023-05-06T01:48:12.565Z,98659.38
2023-05-06T01:49:17.245Z,98657.19
2023-05-06T01:50:19.778Z,98651.28
2023-05-06T01:51:23.160Z,98662.09
2023-05-06T01:52:26.707Z,98653.97
2023-05-06T01:53:28.677Z,98654.28
2023-05-06T01:54:30.697Z,98655.59
2023-05-06T01:55:32.733Z,98658.59
2023-05-06T01:56:34.674Z,98655.88
2023-05-06T01:57:36.710Z,98658.59
2023-05-06T01:58:38.608Z,98653.19
2023-05-06T01:59:40.475Z,98646.47
2023-05-06T02:00:42.563Z,98648.34
2023-05-06T02:01:44.609Z,98649.66
2023-05-06T02:02:47.322Z,98652.38
2023-05-06T02:03:49.520Z,98651.03
2023-05-06T02:04:53.523Z,98651.88
2023-05-06T02:05:55.744Z,98651.56
2023-05-06T02:06:58.402Z,98646.47
2023-05-06T02:08:00.486Z,98651.88
2023-05-06T02:09:02.745Z,98649.16
2023-05-06T02:10:06.085Z,98648.63
2023-05-06T02:11:08.049Z,98650.25
2023-05-06T02:12:10.025Z,98651.34
2023-05-06T02:13:12.478Z,98649.44
2023-05-06T02:14:14.463Z,98655.66
2023-05-06T02:15:16.352Z,98650.25
2023-05-06T02:16:18.604Z,98652.94
2023-05-06T02:17:20.883Z,98651.03
2023-05-06T02:18:22.992Z,98642.44
2023-05-06T02:19:24.913Z,98647.03
2023-05-06T02:20:26.871Z,98652.44
2023-05-06T02:21:28.926Z,98649.44
2023-05-06T02:22:30.707Z,98647.84
2023-05-06T02:23:32.543Z,98647.53
2023-05-06T02:24:34.392Z,98652.44
2023-05-06T02:25:36.471Z,98643.53
2023-05-06T02:26:38.391Z,98647.84
2023-05-06T02:27:40.321Z,98643.03
2023-05-06T02:28:42.515Z,98640.03
2023-05-06T02:29:44.880Z,98650.03
2023-05-06T02:30:46.860Z,98648.44
2023-05-06T02:31:48.772Z,98645.72
2023-05-06T02:32:50.798Z,98638.41
2023-05-06T02:33:52.729Z,98643.31
2023-05-06T02:34:54.585Z,98637.63
2023-05-06T02:35:56.479Z,98643.03
2023-05-06T02:36:58.407Z,98647.13
2023-05-06T02:38:01.011Z,98645.72
2023-05-06T02:39:02.901Z,98645.22
2023-05-06T02:40:06.644Z,98646.03
2023-05-06T02:41:08.600Z,98641.41
2023-05-06T02:42:15.874Z,98641.72
2023-05-06T02:43:17.759Z,98641.41
2023-05-06T02:44:19.577Z,98637.41
2023-05-06T02:45:21.555Z,98640.13
2023-05-06T02:46:23.514Z,98636.63
2023-05-06T02:47:25.487Z,98647.94
2023-05-06T02:48:27.440Z,98642.81
2023-05-06T02:49:29.301Z,98643.91
2023-05-06T02:50:31.421Z,98646.63
2023-05-06T02:51:33.276Z,98647.44
2023-05-06T02:52:35.317Z,98646.63
2023-05-06T02:53:37.144Z,98639.31
2023-05-06T02:54:39.086Z,98643.91
2023-05-06T02:55:40.951Z,98642.28
2023-05-06T02:56:43.317Z,98637.72
2023-05-06T02:57:45.294Z,98642.28
2023-05-06T02:58:47.262Z,98643.38
2023-05-06T02:59:49.208Z,98647.19
2023-05-06T03:00:51.368Z,98634.47
2023-05-06T03:01:53.660Z,98645.28
2023-05-06T03:02:55.771Z,98643.38
2023-05-06T03:03:57.774Z,98641.78
2023-05-06T03:04:59.655Z,98638.28
2023-05-06T03:06:01.519Z,98643.69
2023-05-06T03:07:03.629Z,98641.78
2023-05-06T03:08:05.988Z,98643.69
2023-05-06T03:09:08.776Z,98645.59
2023-05-06T03:10:11.460Z,98639.69
2023-05-06T03:11:13.237Z,98640.78
2023-05-06T03:12:15.436Z,98645.88
2023-05-06T03:13:17.328Z,98642.38
2023-05-06T03:14:19.258Z,98638.56
2023-05-06T03:15:21.125Z,98640.47
2023-05-06T03:16:23.268Z,98641.56
2023-05-06T03:17:25.518Z,98642.69
2023-05-06T03:18:27.467Z,98650.50
2023-05-06T03:19:29.373Z,98645.38
2023-05-06T03:20:31.257Z,98642.97
2023-05-06T03:21:33.538Z,98646.19
2023-05-06T03:22:35.954Z,98642.16
2023-05-06T03:23:38.059Z,98648.38
2023-05-06T03:24:40.119Z,98641.63
2023-05-06T03:25:42.274Z,98648.69
2023-05-06T03:26:44.209Z,98645.97
2023-05-06T03:27:46.184Z,98646.78
2023-05-06T03:28:48.211Z,98645.19
2023-05-06T03:29:50.051Z,98645.19
2023-05-06T03:30:51.998Z,98641.63
2023-05-06T03:31:57.079Z,98647.03
2023-05-06T03:33:01.240Z,98649.75
2023-05-06T03:34:03.223Z,98643.53
2023-05-06T03:35:07.508Z,98647.03
2023-05-06T03:36:09.559Z,98640.03
2023-05-06T03:37:11.647Z,98637.34
2023-05-06T03:38:13.542Z,98639.53
2023-05-06T03:39:15.378Z,98631.72
2023-05-06T03:40:17.643Z,98631.44
2023-05-06T03:41:20.177Z,98637.13
2023-05-06T03:42:22.232Z,98637.94
2023-05-06T03:43:24.164Z,98634.44
2023-05-06T03:44:26.044Z,98637.13
2023-05-06T03:45:27.952Z,98639.84
2023-05-06T03:46:29.804Z,98637.94
2023-05-06T03:47:31.703Z,98635.03
2023-05-06T03:48:33.528Z,98637.72
2023-05-06T03:49:35.325Z,98639.31
2023-05-06T03:50:37.862Z,98637.44
2023-05-06T03:51:39.922Z,98637.72
2023-05-06T03:52:41.955Z,98631.00
2023-05-06T03:53:43.861Z,98632.91
2023-05-06T03:54:45.834Z,98633.41
2023-05-06T03:55:47.788Z,98634.50
2023-05-06T03:56:49.674Z,98644.53
2023-05-06T03:57:51.572Z,98635.31
2023-05-06T03:58:54.603Z,98638.31
2023-05-06T03:59:56.721Z,98641.59
2023-05-06T04:01:01.183Z,98642.09
2023-05-06T04:02:03.168Z,98640.19
2023-05-06T04:03:05.147Z,98635.06
2023-05-06T04:04:07.162Z,98644.53
2023-05-06T04:05:09.704Z,98640.47
2023-05-06T04:06:12.161Z,98645.88
2023-05-06T04:07:14.132Z,98643.19
2023-05-06T04:08:17.141Z,98638.06
2023-05-06T04:09:19.302Z,98641.59
2023-05-06T04:10:21.811Z,98637.56
2023-05-06T04:11:23.684Z,98640.28
2023-05-06T04:12:25.951Z,98635.69
2023-05-06T04:13:27.861Z,98641.06
2023-05-06T04:14:29.824Z,98635.97
2023-05-06T04:15:34.433Z,98636.47
2023-05-06T04:16:36.383Z,98639.19
2023-05-06T04:17:38.400Z,98642.19
2023-05-06T04:18:40.224Z,98640.56
2023-05-06T04:19:42.240Z,98640.28
2023-05-06T04:20:48.117Z,98637.38
2023-05-06T04:21:49.958Z,98639.78
2023-05-06T04:22:52.333Z,98636.25
2023-05-06T04:23:54.729Z,98626.25
2023-05-06T04:24:56.655Z,98630.06
2023-05-06T04:25:59.331Z,98637.66
2023-05-06T04:27:04.350Z,98636.56
2023-05-06T04:28:06.983Z,98641.16
2023-05-06T04:29:09.822Z,98641.66
2023-05-06T04:30:12.835Z,98639.53
2023-05-06T04:31:14.749Z,98644.94
2023-05-06T04:32:17.988Z,98643.06
2023-05-06T04:33:19.840Z,98643.06
2023-05-06T04:34:21.912Z,98648.47
2023-05-06T04:35:23.883Z,98656.84
2023-05-06T04:36:25.945Z,98651.72
2023-05-06T04:37:28.511Z,98656.84
2023-05-06T04:38:32.108Z,98658.44
2023-05-06T04:39:34.254Z,98652.53
2023-05-06T04:40:39.380Z,98653.63
2023-05-06T04:41:41.908Z,98658.75
2023-05-06T04:42:43.761Z,98653.63
2023-05-06T04:43:46.157Z,98653.63
2023-05-06T04:44:48.870Z,98660.13
2023-05-06T04:45:50.865Z,98660.13
2023-05-06T04:46:52.748Z,98664.72
2023-05-06T04:47:54.679Z,98662.84
2023-05-06T04:48:58.285Z,98663.63
2023-05-06T04:50:00.233Z,98666.59
2023-05-06T04:51:04.320Z,98664.44
2023-05-06T04:52:06.577Z,98670.13
2023-05-06T04:53:09.695Z,98665.53
2023-05-06T04:54:11.579Z,98658.00
2023-05-06T04:55:13.623Z,98656.91
2023-05-06T04:56:15.676Z,98658.50
2023-05-06T04:57:17.544Z,98664.72
2023-05-06T04:58:19.676Z,98667.69
2023-05-06T04:59:21.547Z,98670.13
2023-05-06T05:00:26.164Z,98669.31
2023-05-06T05:01:28.388Z,98672.00
2023-05-06T05:02:30.488Z,98667.69
2023-05-06T05:03:32.586Z,98668.78
2023-05-06T05:04:34.637Z,98673.09
2023-05-06T05:05:36.516Z,98673.41
2023-05-06T05:06:38.434Z,98669.91
2023-05-06T05:07:40.311Z,98672.31
2023-05-06T05:08:42.127Z,98676.59
2023-05-06T05:09:44.072Z,98678.50
2023-05-06T05:10:45.992Z,98679.91
2023-05-06T05:11:48.047Z,98678.50
2023-05-06T05:12:49.963Z,98683.09
2023-05-06T05:13:51.858Z,98681.50
2023-05-06T05:14:53.763Z,98686.91
2023-05-06T05:15:56.042Z,98682.31
2023-05-06T05:16:57.951Z,98683.91
2023-05-06T05:17:59.902Z,98689.59
2023-05-06T05:19:03.632Z,98690.41
2023-05-06T05:20:07.376Z,98685.00
2023-05-06T05:21:09.201Z,98694.72
2023-05-06T05:22:11.205Z,98686.09
2023-05-06T05:23:13.121Z,98694.22
2023-05-06T05:24:15.389Z,98692.31
2023-05-06T05:25:17.665Z,98689.59
2023-05-06T05:26:19.618Z,98705.31
2023-05-06T05:27:21.805Z,98695.81
2023-05-06T05:28:24.029Z,98687.72
2023-05-06T05:29:26.039Z,98695.81
2023-05-06T05:30:27.886Z,98699.63
2023-05-06T05:31:31.294Z,98696.63
2023-05-06T05:32:33.367Z,98702.31
2023-05-06T05:33:35.336Z,98706.63
2023-05-06T05:34:37.701Z,98703.13
2023-05-06T05:35:39.786Z,98704.72
2023-05-06T05:36:41.996Z,98711.22
2023-05-06T05:37:44.016Z,98705.31
2023-05-06T05:38:47.894Z,98701.81
2023-05-06T05:39:50.146Z,98699.63
2023-05-06T05:40:52.088Z,98703.13
2023-05-06T05:41:54.133Z,98710.41
2023-05-06T05:42:56.200Z,98711.50
2023-05-06T05:43:58.068Z,98716.91
2023-05-06T05:45:00.642Z,98713.13
2023-05-06T05:46:02.787Z,98706.91
2023-05-06T05:47:04.684Z,98712.31
2023-05-06T05:48:06.743Z,98715.81
2023-05-06T05:49:08.852Z,98715.81
2023-05-06T05:50:10.933Z,98713.13
2023-05-06T05:51:12.783Z,98711.22
2023-05-06T05:52:14.607Z,98714.72
2023-05-06T05:53:16.525Z,98715.81
2023-05-06T05:54:18.299Z,98710.41
2023-05-06T05:55:21.630Z,98713.91
2023-05-06T05:56:23.665Z,98710.41
2023-05-06T05:57:25.576Z,98712.81
2023-05-06T05:58:27.424Z,98709.63
2023-05-06T05:59:29.838Z,98709.63
2023-05-06T06:00:31.748Z,98706.13
2023-05-06T06:01:33.794Z,98710.41
2023-05-06T06:02:36.209Z,98708.81
2023-05-06T06:03:38.652Z,98715.31
2023-05-06T06:04:41.067Z,98714.47
2023-05-06T06:05:43.001Z,98715.03
2023-05-06T06:06:45.120Z,98719.88
2023-05-06T06:07:47.269Z,98719.31
2023-05-06T06:08:49.133Z,98720.41
2023-05-06T06:09:51.722Z,98716.63
2023-05-06T06:10:53.619Z,98713.41
2023-05-06T06:11:55.631Z,98717.44
2023-05-06T06:12:57.830Z,98708.53
2023-05-06T06:13:59.728Z,98714.44
2023-05-06T06:15:01.836Z,98713.13
2023-05-06T06:16:05.017Z,98717.72
2023-05-06T06:17:07.355Z,98714.72
2023-05-06T06:18:09.560Z,98719.03
2023-05-06T06:19:11.984Z,98720.13
2023-05-06T06:20:14.257Z,98719.03
2023-05-06T06:21:16.197Z,98717.44
2023-05-06T06:22:18.092Z,98719.31
2023-05-06T06:23:20.981Z,98723.94
2023-05-06T06:24:22.981Z,98716.91
2023-05-06T06:25:25.454Z,98713.63
2023-05-06T06:26:27.458Z,98711.22
2023-05-06T06:27:29.544Z,98716.63
2023-05-06T06:28:31.637Z,98717.44
2023-05-06T06:29:33.862Z,98713.91
2023-05-06T06:30:36.005Z,98706.63
2023-05-06T06:31:40.292Z,98709.63
2023-05-06T06:32:54.103Z,98709.03
2023-05-06T06:33:56.301Z,98713.63
2023-05-06T06:34:58.774Z,98708.81
2023-05-06T06:36:00.805Z,98714.72
2023-05-06T06:37:02.695Z,98714.72
2023-05-06T06:38:05.024Z,98713.63
2023-05-06T06:39:07.388Z,98721.72
2023-05-06T06:40:11.105Z,98716.88
2023-05-06T06:41:13.064Z,98717.94
2023-05-06T06:42:14.960Z,98724.16
2023-05-06T06:43:18.290Z,98721.47
2023-05-06T06:44:20.129Z,98725.25
2023-05-06T06:45:23.515Z,98736.59
2023-05-06T06:46:25.879Z,98725.78
2023-05-06T06:47:27.746Z,98731.19
2023-05-06T06:48:29.677Z,98730.38
2023-05-06T06:49:31.799Z,98726.88
2023-05-06T06:50:33.652Z,98731.19
2023-05-06T06:51:35.664Z,98736.28
2023-05-06T06:52:37.703Z,98733.59
2023-05-06T06:53:39.812Z,98728.19
2023-05-06T06:54:41.620Z,98732.50
2023-05-06T06:55:46.915Z,98733.84
2023-05-06T06:56:48.927Z,98727.09
2023-05-06T06:57:51.049Z,98734.09
2023-05-06T06:58:53.484Z,98729.00
2023-05-06T06:59:56.184Z,98732.22
2023-05-06T07:00:58.183Z,98725.72
2023-05-06T07:02:00.032Z,98733.03
2023-05-06T07:03:02.088Z,98736.25
2023-05-06T07:04:07.044Z,98735.44
2023-05-06T07:05:10.080Z,98733.53
2023-05-06T07:06:12.522Z,98732.75
2023-05-06T07:07:14.835Z,98742.16
2023-05-06T07:08:17.345Z,98735.94
2023-05-06T07:09:19.302Z,98744.84
2023-05-06T07:10:22.376Z,98745.94
2023-05-06T07:11:24.467Z,98749.47
2023-05-06T07:12:26.997Z,98744.34
2023-05-06T07:13:28.854Z,98740.53
2023-05-06T07:14:30.796Z,98745.66
2023-05-06T07:15:32.853Z,98735.16
2023-05-06T07:16:35.011Z,98744.84
2023-05-06T07:17:36.985Z,98742.97
2023-05-06T07:18:38.873Z,98749.16
2023-05-06T07:19:40.792Z,98748.06
2023-05-06T07:20:42.698Z,98741.84
2023-05-06T07:21:44.907Z,98735.66
2023-05-06T07:22:46.844Z,98741.84
2023-05-06T07:23:48.745Z,98745.38
2023-05-06T07:24:50.671Z,98749.97
2023-05-06T07:25:52.500Z,98746.97
2023-05-06T07:26:54.368Z,98750.78
2023-05-06T07:27:56.322Z,98748.38
2023-05-06T07:28:58.318Z,98745.38
2023-05-06T07:30:00.900Z,98755.06
2023-05-06T07:31:02.949Z,98755.38
2023-05-06T07:32:05.421Z,98756.19
2023-05-06T07:33:07.784Z,98753.78
2023-05-06T07:34:09.781Z,98754.56
2023-05-06T07:35:11.938Z,98756.47
2023-05-06T07:36:14.154Z,98759.69
2023-05-06T07:37:16.247Z,98754.56
2023-05-06T07:38:21.112Z,98763.19
2023-05-06T07:39:23.236Z,98758.59
2023-05-06T07:40:25.329Z,98759.38
2023-05-06T07:41:27.300Z,98760.47
2023-05-06T07:42:29.248Z,98764.00
2023-05-06T07:43:31.185Z,98754.28
2023-05-06T07:44:33.106Z,98762.09
2023-05-06T07:45:35.009Z,98765.59
2023-05-06T07:46:38.593Z,98769.09
2023-05-06T07:47:40.901Z,98759.09
2023-05-06T07:48:42.840Z,98764.50
2023-05-06T07:49:44.784Z,98756.13
2023-05-06T07:50:46.744Z,98766.69
2023-05-06T07:51:48.643Z,98764.50
2023-05-06T07:52:50.768Z,98769.91
2023-05-06T07:53:52.597Z,98769.38
2023-05-06T07:54:54.510Z,98759.38
2023-05-06T07:56:02.176Z,98763.69
2023-05-06T07:57:04.336Z,98768.03
2023-05-06T07:58:06.319Z,98763.69
2023-05-06T07:59:08.194Z,98767.19
2023-05-06T08:00:11.675Z,98759.94
2023-05-06T08:01:13.485Z,98759.94
2023-05-06T08:02:16.134Z,98761.53
2023-05-06T08:03:18.080Z,98768.53
2023-05-06T08:04:20.182Z,98758.03
2023-05-06T08:05:22.173Z,98766.94
2023-05-06T08:06:24.111Z,98770.16
2023-05-06T08:07:25.964Z,98758.53
2023-05-06T08:08:28.133Z,98767.44
2023-05-06T08:09:30.333Z,98766.63
2023-05-06T08:10:32.376Z,98767.44
2023-05-06T08:11:34.576Z,98764.44
2023-05-06T08:12:37.420Z,98762.84
2023-05-06T08:13:39.577Z,98763.06
2023-05-06T08:14:41.503Z,98767.38
2023-05-06T08:15:43.396Z,98767.38
2023-05-06T08:16:45.551Z,98764.97
2023-05-06T08:17:47.491Z,98763.06
2023-05-06T08:18:49.607Z,98762.47
2023-05-06T08:19:51.535Z,98760.06
2023-05-06T08:20:53.487Z,98772.22
2023-05-06T08:21:55.467Z,98767.88
2023-05-06T08:22:57.780Z,98767.88
2023-05-06T08:23:59.612Z,98772.72
2023-05-06T08:25:02.082Z,98768.91
2023-05-06T08:26:04.385Z,98772.72
2023-05-06T08:27:06.338Z,98766.72
2023-05-06T08:28:08.278Z,98774.03
2023-05-06T08:29:10.297Z,98776.72
2023-05-06T08:30:13.130Z,98769.13
2023-05-06T08:31:15.083Z,98772.63
2023-05-06T08:32:17.047Z,98766.94
2023-05-06T08:33:21.812Z,98765.03
2023-05-06T08:34:24.069Z,98765.56
2023-05-06T08:35:25.937Z,98763.13
2023-05-06T08:36:27.972Z,98768.28
2023-05-06T08:37:30.924Z,98772.59
2023-05-06T08:38:33.036Z,98768.78
2023-05-06T08:39:35.119Z,98761.78
2023-05-06T08:40:44.087Z,98769.59
2023-05-06T08:41:54.450Z,98768.19
2023-05-06T08:42:59.475Z,98773.59
2023-05-06T08:44:03.893Z,98765.78
2023-05-06T08:45:07.108Z,98772.00
2023-05-06T08:46:10.174Z,98768.19
2023-05-06T08:47:12.347Z,98763.06
2023-05-06T08:48:14.402Z,98772.00
2023-05-06T08:49:16.781Z,98769.59
2023-05-06T08:50:18.850Z,98760.66
2023-05-06T08:51:28.520Z,98764.97
2023-05-06T08:52:31.640Z,98766.63
2023-05-06T08:53:35.236Z,98761.81
2023-05-06T08:54:38.462Z,98764.03
2023-05-06T08:55:45.633Z,98763.50
2023-05-06T08:56:57.608Z,98757.59
2023-05-06T08:58:00.496Z,98764.66
2023-05-06T08:59:02.677Z,98763.34
2023-05-06T09:00:05.974Z,98758.81
2023-05-06T09:01:08.333Z,98764.00
2023-05-06T09:02:11.694Z,98763.19
2023-05-06T09:03:13.841Z,98760.25
2023-05-06T09:04:18.420Z,98765.97
2023-05-06T09:05:20.565Z,98760.06
2023-05-06T09:06:24.378Z,98757.63
2023-05-06T09:07:26.302Z,98759.00
2023-05-06T09:08:28.221Z,98758.47
2023-05-06T09:09:30.173Z,98757.94
2023-05-06T09:10:37.828Z,98760.16
2023-05-06T09:11:39.718Z,98762.31
2023-05-06T09:12:41.698Z,98762.03
2023-05-06T09:13:43.673Z,98759.06
2023-05-06T09:14:49.442Z,98758.53
2023-05-06T09:15:55.039Z,98761.75
2023-05-06T09:16:57.181Z,98758.75
2023-05-06T09:18:01.417Z,98760.34
2023-05-06T09:19:03.675Z,98759.28
2023-05-06T09:20:09.189Z,98756.59
2023-05-06T09:21:11.171Z,98751.69
2023-05-06T09:22:13.416Z,98757.91
2023-05-06T09:23:18.102Z,98759.00
2023-05-06T09:24:21.216Z,98752.78
2023-05-06T09:25:23.348Z,98754.41
2023-05-06T09:26:27.381Z,98753.06
2023-05-06T09:27:33.397Z,98755.50
2023-05-06T09:28:35.678Z,98755.75
2023-05-06T09:29:37.497Z,98757.66
2023-05-06T09:30:46.478Z,98757.66
2023-05-06T09:31:48.550Z,98752.56
2023-05-06T09:32:53.260Z,98751.75
2023-05-06T09:33:57.878Z,98757.44
2023-05-06T09:35:01.216Z,98751.22
2023-05-06T09:36:04.908Z,98758.00
2023-05-06T09:37:06.848Z,98751.00
2023-05-06T09:38:09.906Z,98752.09
2023-05-06T09:39:11.732Z,98750.47
2023-05-06T09:40:14.321Z,98759.69
2023-05-06T09:41:21.034Z,98751.06
2023-05-06T09:42:30.585Z,98755.38
2023-05-06T09:43:32.828Z,98756.47
2023-05-06T09:44:35.152Z,98753.75
2023-05-06T09:45:37.318Z,98748.38
2023-05-06T09:46:40.852Z,98749.47
2023-05-06T09:47:43.090Z,98747.25
2023-05-06T09:48:47.094Z,98744.56
2023-05-06T09:49:49.302Z,98746.16
2023-05-06T09:50:53.540Z,98748.56
2023-05-06T09:51:57.701Z,98748.00
2023-05-06T09:53:03.659Z,98741.78
2023-05-06T09:54:06.866Z,98747.56
2023-05-06T09:55:11.048Z,98745.84
2023-05-06T09:56:15.711Z,98744.44
2023-05-06T09:57:19.782Z,98745.25
2023-05-06T09:58:22.828Z,98743.34
2023-05-06T09:59:28.192Z,98739.28
2023-05-06T10:00:32.381Z,98749.81
2023-05-06T10:01:37.662Z,98739.50
2023-05-06T10:02:41.673Z,98739.25
2023-05-06T10:03:46.434Z,98744.34
2023-05-06T10:04:49.865Z,98742.16
2023-05-06T10:05:54.796Z,98737.75
2023-05-06T10:06:57.962Z,98741.56
2023-05-06T10:08:01.503Z,98734.25
2023-05-06T10:09:06.266Z,98736.41
2023-05-06T10:10:12.276Z,98741.22
2023-05-06T10:11:15.799Z,98731.22
2023-05-06T10:12:19.154Z,98736.31
2023-05-06T10:13:24.977Z,98733.31
2023-05-06T10:14:27.033Z,98736.25
2023-05-06T10:15:30.602Z,98737.06
2023-05-06T10:16:36.717Z,98738.69
2023-05-06T10:17:41.971Z,98737.00
2023-05-06T10:18:46.488Z,98731.59
2023-05-06T10:19:52.236Z,98738.28
2023-05-06T10:20:55.407Z,98733.69
2023-05-06T10:22:09.185Z,98734.72
2023-05-06T10:23:36.206Z,98736.84
2023-05-06T10:24:55.921Z,98738.97
2023-05-06T10:26:06.384Z,98734.66
2023-05-06T10:27:12.472Z,98731.94
2023-05-06T10:28:31.232Z,98734.34
2023-05-06T10:29:36.191Z,98731.34
2023-05-06T10:30:40.493Z,98727.84
2023-05-06T10:31:56.833Z,98725.09
2023-05-06T10:33:04.704Z,98727.78
2023-05-06T10:34:09.288Z,98724.28
2023-05-06T10:35:28.093Z,98721.78
2023-05-06T10:36:33.938Z,98718.78
2023-05-06T10:37:38.293Z,98718.28
2023-05-06T10:38:47.380Z,98717.69
2023-05-06T10:39:49.734Z,98714.97
2023-05-06T10:40:53.646Z,98713.63
2023-05-06T10:41:56.704Z,98716.84
2023-05-06T10:43:31.244Z,98713.75
2023-05-06T10:44:59.828Z,98713.75
2023-05-06T10:46:09.358Z,98701.63
2023-05-06T10:47:11.606Z,98703.81
2023-05-06T10:48:13.561Z,98705.44
2023-05-06T10:49:16.947Z,98708.13
2023-05-06T10:50:27.019Z,98710.25
2023-05-06T10:51:29.332Z,98704.03
2023-05-06T10:52:45.999Z,98706.66
2023-05-06T10:54:02.566Z,98704.47
2023-05-06T10:55:38.165Z,98701.97
2023-05-06T10:56:50.252Z,98703.06
2023-05-06T10:58:01.588Z,98694.44
2023-05-06T10:59:25.799Z,98701.66
2023-05-06T11:00:32.610Z,98708.97
2023-05-06T11:01:40.792Z,98694.66
2023-05-06T11:02:44.887Z,98686.25
2023-05-06T11:03:50.687Z,98691.66
2023-05-06T11:05:01.825Z,98696.50
2023-05-06T11:06:04.169Z,98682.97
2023-05-06T11:07:21.729Z,98688.88
2023-05-06T11:08:27.265Z,98685.88
2023-05-06T11:09:29.592Z,98685.88
2023-05-06T11:10:34.869Z,98692.88
2023-05-06T11:12:02.144Z,98681.19
2023-05-06T11:13:29.070Z,98682.00
2023-05-06T11:14:38.707Z,98688.50
2023-05-06T11:15:41.346Z,98691.47
2023-05-06T11:16:51.187Z,98683.09
2023-05-06T11:17:57.274Z,98684.69
2023-05-06T11:18:59.833Z,98688.50
2023-05-06T11:20:24.392Z,98683.78
2023-05-06T11:21:32.306Z,98681.88
2023-05-06T11:22:41.058Z,98680.28
2023-05-06T11:23:55.393Z,98681.88
2023-05-06T11:24:57.578Z,98681.88
2023-05-06T11:26:00.385Z,98691.09
2023-05-06T11:27:02.527Z,98683.50
2023-05-06T11:28:11.924Z,98683.19
2023-05-06T11:29:16.858Z,98682.88
2023-05-06T11:30:18.651Z,98680.19
2023-05-06T11:31:22.488Z,98682.31
2023-05-06T11:32:30.103Z,98683.13
2023-05-06T11:33:37.260Z,98671.19
2023-05-06T11:34:39.862Z,98669.28
2023-05-06T11:35:42.279Z,98672.28
2023-05-06T11:36:51.473Z,98671.38
2023-05-06T11:37:53.489Z,98679.00
2023-05-06T11:38:56.653Z,98667.88
2023-05-06T11:39:58.551Z,98669.78
2023-05-06T11:41:01.453Z,98680.31
2023-05-06T11:42:07.785Z,98669.69
2023-05-06T11:43:14.481Z,98670.22
2023-05-06T11:44:31.355Z,98674.53
2023-05-06T11:45:50.705Z,98675.03
2023-05-06T11:46:57.151Z,98675.13
2023-05-06T11:47:59.110Z,98674.84
2023-05-06T11:49:01.213Z,98678.34
2023-05-06T11:50:07.569Z,98668.03
2023-05-06T11:51:09.731Z,98663.72
2023-05-06T11:52:13.200Z,98671.22
2023-05-06T11:53:19.416Z,98667.41
2023-05-06T11:54:22.974Z,98671.72
2023-05-06T11:55:26.208Z,98670.13
2023-05-06T11:56:28.440Z,98668.72
2023-05-06T11:57:30.284Z,98667.09
2023-05-06T11:58:32.570Z,98660.31
2023-05-06T11:59:38.011Z,98667.34
2023-05-06T12:00:55.968Z,98668.03
2023-05-06T12:02:00.701Z,98667.22
2023-05-06T12:03:03.949Z,98664.50
2023-05-06T12:04:06.206Z,98668.31
2023-05-06T12:05:09.871Z,98665.31
2023-05-06T12:06:12.824Z,98669.94
2023-05-06T12:07:16.439Z,98666.13
2023-05-06T12:08:28.456Z,98667.44
2023-05-06T12:09:31.143Z,98665.53
2023-05-06T12:10:33.833Z,98669.03
2023-05-06T12:11:37.433Z,98669.53
2023-05-06T12:12:39.533Z,98665.72
2023-05-06T12:13:41.925Z,98669.25
2023-05-06T12:14:45.580Z,98664.63
2023-05-06T12:15:49.955Z,98663.53
2023-05-06T12:16:54.091Z,98661.13
2023-05-06T12:17:58.267Z,98665.00
2023-05-06T12:19:00.917Z,98674.34
2023-05-06T12:20:04.466Z,98670.22
2023-05-06T12:21:07.439Z,98668.31
2023-05-06T12:22:16.270Z,98666.41
2023-05-06T12:23:18.194Z,98665.34
2023-05-06T12:24:32.228Z,98666.34
2023-05-06T12:25:34.462Z,98663.94
2023-05-06T12:26:47.266Z,98660.31
2023-05-06T12:27:49.086Z,98658.69
2023-05-06T12:29:08.621Z,98652.69
2023-05-06T12:30:11.668Z,98658.69
2023-05-06T12:31:22.734Z,98660.81